Time;durP1;ratioP1;P1;durP2;ratioP2;P2;SDS_P1;SDS_P2;PMS_P1;PMS_P2;Temp;Humidity;BMP_temperature;BMP_pressure;BME280_temperature;BME280_humidity;BME280_pressure;Samples;Min_cycle;Max_cycle;Signal;HPM_P1;HPM_P2
2022/10/03 00:01:40;;;;;;;1.40;1.08;;;;;;;;;;7405432;19;20014;-83
2022/10/03 00:07:37;;;;;;;1.50;1.20;;;;;;;;;;7403216;19;20063;-84
2022/10/03 00:10:47;;;;;;;5.22;1.45;;;;;;;;;;7402265;19;20309;-83
2022/10/03 00:13:44;;;;;;;2.90;1.30;;;;;;;;;;7402437;19;20018;-84
2022/10/03 00:17:06;;;;;;;2.40;1.40;;;;;;;;;;7401953;19;20010;-83
2022/10/03 00:20:04;;;;;;;3.10;1.20;;;;;;;;;;7396603;19;20006;-83
2022/10/03 00:22:47;;;;;;;4.20;1.77;;;;;;;;;;7402646;19;20352;-84
2022/10/03 00:25:17;;;;;;;1.67;1.42;;;;;;;;;;7400944;19;20086;-83
2022/10/03 00:27:49;;;;;;;3.85;1.48;;;;;;;;;;7400132;19;20086;-84
2022/10/03 00:30:55;;;;;;;3.42;1.38;;;;;;;;;;7402610;19;20460;-84
2022/10/03 00:34:08;;;;;;;2.03;1.52;;;;;;;;;;7401065;19;20005;-84
2022/10/03 00:37:06;;;;;;;5.18;1.48;;;;;;;;;;7399118;19;19999;-83
2022/10/03 00:39:45;;;;;;;1.70;1.52;;;;;;;;;;7399403;19;20043;-83
2022/10/03 00:42:42;;;;;;;3.13;1.70;;;;;;;;;;7399844;19;20014;-84
2022/10/03 00:45:45;;;;;;;1.65;1.38;;;;;;;;;;7401319;19;20022;-84
2022/10/03 00:48:48;;;;;;;2.33;1.40;;;;;;;;;;7401440;19;20010;-84
2022/10/03 00:51:26;;;;;;;5.57;1.77;;;;;;;;;;7400047;19;19998;-84
2022/10/03 00:53:51;;;;;;;2.03;1.63;;;;;;;;;;7402475;19;20102;-84
2022/10/03 00:56:20;;;;;;;3.65;1.85;;;;;;;;;;7397601;19;20006;-83
2022/10/03 00:59:06;;;;;;;4.43;2.05;;;;;;;;;;7398698;19;20019;-83
2022/10/03 01:01:45;;;;;;;2.90;1.65;;;;;;;;;;7399464;19;20014;-84
2022/10/03 01:08:07;;;;;;;3.42;1.73;;;;;;;;;;7398197;19;20013;-85
2022/10/03 01:11:03;;;;;;;2.13;1.90;;;;;;;;;;7398920;19;20007;-85
2022/10/03 01:13:41;;;;;;;;;;;;;;;;;;7401852;19;20502;-84
2022/10/03 01:16:26;;;;;;;2.83;1.42;;;;;;;;;;7400228;19;20019;-85
2022/10/03 01:19:22;;;;;;;4.40;1.95;;;;;;;;;;7397779;19;20021;-85
2022/10/03 01:22:27;;;;;;;3.38;1.98;;;;;;;;;;7398648;19;20010;-84
2022/10/03 01:25:38;;;;;;;2.33;1.48;;;;;;;;;;7393690;19;20005;-84
2022/10/03 01:31:45;;;;;;;3.30;2.17;;;;;;;;;;7397435;19;20515;-85
2022/10/03 01:35:00;;;;;;;3.63;1.65;;;;;;;;;;7400756;19;20011;-84
2022/10/03 01:38:20;;;;;;;2.97;2.00;;;;;;;;;;7399074;19;20529;-84
2022/10/03 01:41:02;;;;;;;2.45;1.80;;;;;;;;;;7397873;19;20036;-84
2022/10/03 01:43:48;;;;;;;3.38;1.95;;;;;;;;;;7397316;19;20031;-84
2022/10/03 01:46:21;;;;;;;3.45;1.80;;;;;;;;;;7396826;19;20035;-84
2022/10/03 01:49:28;;;;;;;2.20;1.50;;;;;;;;;;7398395;19;20009;-85
2022/10/03 01:52:42;;;;;;;2.13;1.52;;;;;;;;;;7398989;19;20793;-84
2022/10/03 01:55:36;;;;;;;4.40;1.77;;;;;;;;;;7396459;19;20007;-84
2022/10/03 01:58:56;;;;;;;3.83;1.90;;;;;;;;;;7398817;19;20014;-84
2022/10/03 02:01:56;;;;;;;2.95;1.70;;;;;;;;;;7399123;19;20035;-84
2022/10/03 02:05:03;;;;;;;1.88;1.67;;;;;;;;;;7396401;19;20010;-83
2022/10/03 02:07:59;;;;;;;6.28;2.10;;;;;;;;;;7393752;19;20019;-84
2022/10/03 02:10:44;;;;;;;2.72;2.00;;;;;;;;;;7395818;19;20011;-83
2022/10/03 02:13:12;;;;;;;5.13;2.33;;;;;;;;;;7395098;19;20010;-85
2022/10/03 02:16:16;;;;;;;8.68;1.95;;;;;;;;;;7394927;19;20021;-84
2022/10/03 02:18:45;;;;;;;2.65;1.90;;;;;;;;;;7392234;19;20547;-83
2022/10/03 02:21:31;;;;;;;2.50;2.10;;;;;;;;;;7394300;19;20484;-84
2022/10/03 02:24:34;;;;;;;1.92;1.63;;;;;;;;;;7401457;19;20014;-83
2022/10/03 02:27:40;;;;;;;2.63;1.77;;;;;;;;;;7399865;19;20013;-84
2022/10/03 02:30:40;;;;;;;3.30;2.10;;;;;;;;;;7402005;19;20120;-84
2022/10/03 02:33:54;;;;;;;3.10;1.90;;;;;;;;;;7400253;19;20020;-85
2022/10/03 02:36:49;;;;;;;4.30;1.75;;;;;;;;;;7400147;19;20010;-83
2022/10/03 02:39:40;;;;;;;3.63;1.90;;;;;;;;;;7400678;19;20036;-83
2022/10/03 02:42:44;;;;;;;2.97;1.92;;;;;;;;;;7405843;19;20011;-83
2022/10/03 02:45:59;;;;;;;3.25;2.03;;;;;;;;;;7401909;19;20053;-84
2022/10/03 02:48:42;;;;;;;3.92;1.95;;;;;;;;;;7402136;19;20015;-83
2022/10/03 02:51:56;;;;;;;3.20;2.15;;;;;;;;;;7404662;19;20010;-84
2022/10/03 02:55:10;;;;;;;2.67;1.77;;;;;;;;;;7403314;19;20011;-84
2022/10/03 02:58:01;;;;;;;4.32;1.77;;;;;;;;;;7401802;19;20014;-84
2022/10/03 03:04:17;;;;;;;2.17;1.75;;;;;;;;;;7402589;19;20013;-83
2022/10/03 03:07:13;;;;;;;2.90;2.10;;;;;;;;;;7398699;19;20007;-83
2022/10/03 03:10:27;;;;;;;2.08;1.70;;;;;;;;;;7401047;19;20027;-84
2022/10/03 03:13:21;;;;;;;3.22;1.70;;;;;;;;;;7402777;19;20389;-84
2022/10/03 03:16:04;;;;;;;10.73;3.33;;;;;;;;;;7402261;19;20019;-83
2022/10/03 03:18:43;;;;;;;3.00;1.60;;;;;;;;;;7403245;19;20023;-83
2022/10/03 03:21:36;;;;;;;3.28;2.10;;;;;;;;;;7399869;19;20830;-83
2022/10/03 03:24:43;;;;;;;3.17;2.15;;;;;;;;;;7402287;19;20074;-85
2022/10/03 03:27:33;;;;;;;1.70;1.58;;;;;;;;;;7400228;19;20753;-84
2022/10/03 03:30:11;;;;;;;2.40;1.70;;;;;;;;;;7403151;19;20066;-84
2022/10/03 03:36:09;;;;;;;2.72;1.88;;;;;;;;;;7401133;19;20025;-83
2022/10/03 03:38:52;;;;;;;4.20;1.70;;;;;;;;;;7400040;19;20017;-83
2022/10/03 03:41:55;;;;;;;2.95;1.70;;;;;;;;;;7400954;19;20274;-84
2022/10/03 03:44:45;;;;;;;2.55;1.85;;;;;;;;;;7399687;19;20042;-84
2022/10/03 03:47:20;;;;;;;3.00;1.83;;;;;;;;;;7399233;19;20117;-83
2022/10/03 03:50:23;;;;;;;4.28;1.98;;;;;;;;;;7399527;19;20086;-83
2022/10/03 03:53:32;;;;;;;6.22;2.28;;;;;;;;;;7400079;19;20010;-83
2022/10/03 03:56:01;;;;;;;4.10;1.85;;;;;;;;;;7396928;19;20078;-83
2022/10/03 03:58:39;;;;;;;2.63;1.60;;;;;;;;;;7400205;19;20018;-83
2022/10/03 04:01:22;;;;;;;3.10;2.10;;;;;;;;;;7400290;19;20074;-83
2022/10/03 04:04:12;;;;;;;4.43;1.90;;;;;;;;;;7399208;19;20014;-83
2022/10/03 04:06:55;;;;;;;4.03;1.88;;;;;;;;;;7396699;19;20010;-84
2022/10/03 04:09:58;;;;;;;2.47;1.75;;;;;;;;;;7399257;19;20007;-83
2022/10/03 04:12:42;;;;;;;4.25;2.20;;;;;;;;;;7399533;19;20015;-84
2022/10/03 04:15:36;;;;;;;6.80;1.98;;;;;;;;;;7399867;19;20070;-84
2022/10/03 04:21:21;;;;;;;2.75;1.90;;;;;;;;;;7400360;19;20005;-83
2022/10/03 04:24:18;;;;;;;4.32;2.05;;;;;;;;;;7398213;19;20090;-83
2022/10/03 04:26:58;;;;;;;4.50;2.60;;;;;;;;;;7393350;19;20019;-84
2022/10/03 04:29:48;;;;;;;2.35;2.00;;;;;;;;;;7396762;19;20018;-83
2022/10/03 04:32:22;;;;;;;2.85;1.98;;;;;;;;;;7399266;19;20033;-83
2022/10/03 04:35:16;;;;;;;3.22;2.03;;;;;;;;;;7396813;19;20463;-83
2022/10/03 04:38:33;;;;;;;4.68;2.25;;;;;;;;;;7399424;19;20047;-83
2022/10/03 04:41:52;;;;;;;5.70;2.38;;;;;;;;;;7395212;19;20014;-83
2022/10/03 05:21:04;;;;;;;2.50;1.75;;;;;;;;;;7390982;19;20522;-83
2022/10/03 05:37:17;;;;;;;3.20;2.65;;;;;;;;;;7394196;19;20029;-84
2022/10/03 05:40:27;;;;;;;6.65;3.85;;;;;;;;;;7398295;19;20013;-84
2022/10/03 05:43:49;;;;;;;10.27;5.90;;;;;;;;;;7402338;19;20010;-84
2022/10/03 06:19:44;;;;;;;7.60;3.45;;;;;;;;;;7396380;19;20360;-84
2022/10/03 06:22:47;;;;;;;5.38;3.30;;;;;;;;;;7395733;19;20019;-83
2022/10/03 06:31:52;;;;;;;;;;;;;;;;;;;;;
2022/10/03 06:41:53;;;;;;;5.47;3.22;;;;;;;;;;7397443;19;19995;-85
2022/10/03 06:45:31;;;;;;;8.60;4.10;;;;;;;;;;7398491;19;20031;-85
2022/10/03 12:21:17;;;;;;;;;;;;;;;;;;;;;
2022/10/03 12:31:41;;;;;;;3.40;1.30;;;;;;;;;;7398544;19;19975;-85
2022/10/03 12:34:50;;;;;;;10.32;2.38;;;;;;;;;;7399208;19;20096;-84
2022/10/03 12:38:03;;;;;;;8.52;1.92;;;;;;;;;;7394854;19;20010;-84
2022/10/03 12:40:35;;;;;;;6.35;1.90;;;;;;;;;;7393136;19;20038;-83
2022/10/03 12:47:20;;;;;;;5.40;1.40;;;;;;;;;;7391779;19;19997;-83
2022/10/03 12:53:17;;;;;;;4.97;1.10;;;;;;;;;;7397427;19;20001;-83
2022/10/03 12:59:57;;;;;;;3.03;0.90;;;;;;;;;;7392228;19;20036;-84
2022/10/03 13:03:03;;;;;;;3.13;1.20;;;;;;;;;;7396624;19;20033;-83
2022/10/03 13:05:28;;;;;;;5.80;1.55;;;;;;;;;;7392745;19;20359;-83
2022/10/03 13:08:19;;;;;;;2.22;1.30;;;;;;;;;;7391473;19;19999;-83
2022/10/03 13:11:08;;;;;;;5.40;1.13;;;;;;;;;;7395551;19;20014;-83
2022/10/03 13:13:55;;;;;;;4.30;1.13;;;;;;;;;;7398427;19;20010;-83
2022/10/03 13:17:24;;;;;;;;;;;;;;;;;;;;;
2022/10/03 13:20:04;;;;;;;4.68;1.30;;;;;;;;;;7392076;19;20018;-83
2022/10/03 13:23:09;;;;;;;3.53;1.00;;;;;;;;;;7396678;19;20020;-83
2022/10/03 13:25:42;;;;;;;6.32;1.15;;;;;;;;;;7394369;19;20005;-83
2022/10/03 13:29:10;;;;;;;3.70;1.02;;;;;;;;;;7399011;19;20247;-83
2022/10/03 13:31:39;;;;;;;1.67;1.05;;;;;;;;;;7394123;19;19998;-84
2022/10/03 13:34:17;;;;;;;7.13;1.43;;;;;;;;;;7394101;19;20034;-84
2022/10/03 13:37:30;;;;;;;;;;;;;;;;;;;;;
2022/10/03 13:40:36;;;;;;;1.48;0.80;;;;;;;;;;7397938;19;20377;-84
2022/10/03 13:43:12;;;;;;;3.03;0.90;;;;;;;;;;7396832;19;20015;-84
2022/10/03 13:46:19;;;;;;;2.65;1.17;;;;;;;;;;7393422;19;20021;-84
2022/10/03 13:49:09;;;;;;;3.13;0.70;;;;;;;;;;7396493;19;19999;-84
2022/10/03 13:52:14;;;;;;;2.95;0.60;;;;;;;;;;7396676;19;20015;-84
2022/10/03 13:55:18;;;;;;;0.68;0.57;;;;;;;;;;7391742;19;20714;-84
2022/10/03 13:58:10;;;;;;;1.80;0.73;;;;;;;;;;7409336;19;20038;-84
2022/10/03 14:01:12;;;;;;;1.52;0.85;;;;;;;;;;7416243;19;20011;-84
2022/10/03 14:07:53;;;;;;;1.40;1.05;;;;;;;;;;7415828;19;20547;-84
2022/10/03 14:11:17;;;;;;;;;;;;;;;;;;;;;
2022/10/03 14:14:23;;;;;;;2.22;0.98;;;;;;;;;;7415488;19;20037;-84
2022/10/03 14:17:46;;;;;;;2.55;1.00;;;;;;;;;;7414740;19;20003;-86
2022/10/03 14:23:50;;;;;;;2.28;1.05;;;;;;;;;;7426265;19;19998;-84
2022/10/03 14:27:00;;;;;;;2.60;0.90;;;;;;;;;;7425857;19;20086;-84
2022/10/03 14:33:31;;;;;;;1.73;0.80;;;;;;;;;;7405775;19;19999;-85
2022/10/03 14:36:17;;;;;;;1.95;1.40;;;;;;;;;;7405589;19;20019;-85
2022/10/03 14:39:24;;;;;;;4.32;1.10;;;;;;;;;;7405275;19;20003;-85
2022/10/03 14:42:47;;;;;;;3.65;0.90;;;;;;;;;;7404155;19;20006;-85
2022/10/03 14:45:37;;;;;;;3.58;1.45;;;;;;;;;;7403356;19;20011;-85
2022/10/03 14:52:35;;;;;;;;;;;;;;;;;;;;;
2022/10/03 14:56:01;;;;;;;3.17;1.20;;;;;;;;;;7405423;19;20006;-84
2022/10/03 15:02:20;;;;;;;4.10;1.13;;;;;;;;;;7403767;19;20022;-85
2022/10/03 15:05:09;;;;;;;4.32;1.52;;;;;;;;;;7404632;19;20672;-85
2022/10/03 15:08:31;;;;;;;;;;;;;;;;;;;;;
2022/10/03 15:15:12;;;;;;;6.05;1.38;;;;;;;;;;7404685;19;20010;-85
2022/10/03 15:18:13;;;;;;;2.45;1.08;;;;;;;;;;7401600;19;20011;-84
2022/10/03 15:24:26;;;;;;;7.77;1.20;;;;;;;;;;7401892;19;20075;-85
2022/10/03 15:33:51;;;;;;;;;;;;;;;;;;;;;
2022/10/03 15:36:54;;;;;;;2.45;0.90;;;;;;;;;;7399923;19;19998;-85
2022/10/03 15:39:39;;;;;;;2.38;0.75;;;;;;;;;;7397926;19;20524;-84
2022/10/03 15:42:07;;;;;;;2.65;0.70;;;;;;;;;;7397453;19;20771;-84
2022/10/03 20:55:26;;;;;;;4.80;2.50;;;;;;;;;;7397136;19;20021;-85
2022/10/03 21:18:18;;;;;;;2.33;0.73;;;;;;;;;;7395759;19;20006;-83
2022/10/03 21:20:45;;;;;;;1.48;0.70;;;;;;;;;;7396370;19;20010;-83
2022/10/03 21:23:21;;;;;;;2.55;1.17;;;;;;;;;;7397997;19;20011;-83
2022/10/03 21:25:53;;;;;;;1.30;0.93;;;;;;;;;;7396468;19;20002;-83
2022/10/03 21:29:12;;;;;;;2.10;0.98;;;;;;;;;;7395366;19;20771;-83
2022/10/03 21:31:59;;;;;;;1.00;0.90;;;;;;;;;;7397145;19;20010;-85
2022/10/03 21:35:06;;;;;;;2.00;0.80;;;;;;;;;;7398427;19;19998;-83
2022/10/03 21:37:48;;;;;;;0.80;0.73;;;;;;;;;;7392191;19;20010;-83
2022/10/03 21:40:46;;;;;;;2.50;0.82;;;;;;;;;;7393243;19;20014;-83
2022/10/03 21:43:36;;;;;;;1.15;0.95;;;;;;;;;;7391773;19;20002;-83
2022/10/03 21:46:26;;;;;;;3.65;0.82;;;;;;;;;;7391412;19;20023;-83
2022/10/03 21:48:54;;;;;;;1.02;0.90;;;;;;;;;;7393672;19;20015;-84
2022/10/03 21:51:26;;;;;;;1.75;0.90;;;;;;;;;;7396835;19;20062;-85
2022/10/03 21:54:05;;;;;;;1.30;0.80;;;;;;;;;;7397628;19;20082;-84
2022/10/03 21:56:58;;;;;;;1.27;0.98;;;;;;;;;;7397292;19;20010;-84
2022/10/03 21:59:26;;;;;;;1.30;0.90;;;;;;;;;;7395861;19;20007;-83
2022/10/03 22:02:15;;;;;;;1.77;1.10;;;;;;;;;;7396158;19;20005;-83
2022/10/03 22:04:51;;;;;;;1.70;1.02;;;;;;;;;;7396894;19;20011;-83
2022/10/03 22:07:32;;;;;;;2.35;0.88;;;;;;;;;;7402928;19;20370;-82
2022/10/03 22:09:57;;;;;;;2.85;1.17;;;;;;;;;;7395388;19;20523;-83
2022/10/03 22:12:26;;;;;;;6.88;3.25;;;;;;;;;;7397384;19;20027;-84
2022/10/03 22:15:07;;;;;;;2.53;1.73;;;;;;;;;;7400453;19;20038;-84
2022/10/03 22:17:46;;;;;;;4.72;2.17;;;;;;;;;;7396120;19;20003;-84
2022/10/03 22:20:27;;;;;;;3.58;2.13;;;;;;;;;;7398021;19;20006;-84
2022/10/03 22:23:07;;;;;;;7.13;3.35;;;;;;;;;;7397672;19;20131;-84
2022/10/03 22:26:02;;;;;;;4.30;2.25;;;;;;;;;;7399261;19;20005;-83
2022/10/03 22:28:31;;;;;;;6.97;1.65;;;;;;;;;;7398282;19;20050;-83
2022/10/03 22:31:33;;;;;;;4.22;1.85;;;;;;;;;;7401607;19;20031;-84
2022/10/03 22:33:58;;;;;;;2.22;1.27;;;;;;;;;;7396784;19;20028;-83
2022/10/03 22:36:24;;;;;;;1.45;1.10;;;;;;;;;;7398029;19;20010;-83
2022/10/03 22:38:51;;;;;;;3.22;1.40;;;;;;;;;;7398541;19;20451;-83
2022/10/03 22:41:24;;;;;;;4.63;1.90;;;;;;;;;;7402453;19;19999;-83
2022/10/03 22:44:00;;;;;;;2.90;1.58;;;;;;;;;;7401907;19;20160;-83
2022/10/03 22:46:30;;;;;;;4.00;1.52;;;;;;;;;;7401058;19;19999;-83
2022/10/03 22:49:04;;;;;;;1.65;1.00;;;;;;;;;;7400304;19;20023;-83
2022/10/03 22:51:31;;;;;;;3.25;1.20;;;;;;;;;;7402588;19;20036;-83
2022/10/03 22:54:11;;;;;;;3.92;2.08;;;;;;;;;;7404604;19;20015;-84
2022/10/03 22:56:42;;;;;;;2.35;1.13;;;;;;;;;;7406499;19;19999;-84
2022/10/03 22:59:12;;;;;;;1.02;0.85;;;;;;;;;;7403825;19;20085;-84
2022/10/03 23:01:44;;;;;;;1.05;0.75;;;;;;;;;;7406791;19;20467;-83
2022/10/03 23:04:15;;;;;;;1.10;0.85;;;;;;;;;;7406941;19;20035;-83
2022/10/03 23:06:54;;;;;;;1.60;0.90;;;;;;;;;;7402203;19;19999;-83
2022/10/03 23:09:27;;;;;;;5.97;1.42;;;;;;;;;;7402135;19;20007;-84
2022/10/03 23:11:54;;;;;;;5.07;1.65;;;;;;;;;;7406500;19;20019;-84
2022/10/03 23:14:29;;;;;;;2.05;1.30;;;;;;;;;;7403716;19;20007;-84
2022/10/03 23:17:09;;;;;;;2.47;0.95;;;;;;;;;;7406315;19;20010;-84
2022/10/03 23:19:48;;;;;;;1.08;0.88;;;;;;;;;;7398690;19;20013;-84
2022/10/03 23:22:17;;;;;;;4.93;1.02;;;;;;;;;;7401352;19;20023;-84
2022/10/03 23:24:55;;;;;;;1.55;0.88;;;;;;;;;;7404117;19;20018;-83
2022/10/03 23:28:15;;;;;;;1.10;0.70;;;;;;;;;;7403874;19;20206;-84
2022/10/03 23:30:49;;;;;;;2.95;1.00;;;;;;;;;;7405072;19;20018;-84
2022/10/03 23:33:38;;;;;;;1.13;0.82;;;;;;;;;;7407248;19;20007;-83
2022/10/03 23:36:12;;;;;;;1.27;0.85;;;;;;;;;;7405030;19;20440;-83
2022/10/03 23:38:37;;;;;;;1.58;0.90;;;;;;;;;;7404391;19;20018;-83
2022/10/03 23:41:49;;;;;;;1.20;1.00;;;;;;;;;;7403477;19;20321;-84
2022/10/03 23:44:57;;;;;;;0.95;0.80;;;;;;;;;;7402010;19;20074;-85
2022/10/03 23:47:28;;;;;;;1.00;0.70;;;;;;;;;;7400207;19;20327;-83
2022/10/03 23:49:53;;;;;;;0.95;0.73;;;;;;;;;;7397967;19;20009;-84
2022/10/03 23:52:23;;;;;;;0.57;0.57;;;;;;;;;;7398550;19;20011;-84
2022/10/03 23:54:52;;;;;;;0.57;0.57;;;;;;;;;;7397909;19;20014;-83
2022/10/03 23:57:19;;;;;;;0.50;0.50;;;;;;;;;;7401203;19;19999;-84
2022/10/03 23:59:47;;;;;;;1.23;0.77;;;;;;;;;;7400754;19;20001;-83
